sensor_id;sensor_type;location;lat;lon;timestamp;temperature;humidity
15426;DHT22;7812;50.072;7.036;2024-01-10T00:02:06;-2.70;99.90
15426;DHT22;7812;50.072;7.036;2024-01-10T00:04:31;-2.60;99.90
15426;DHT22;7812;50.072;7.036;2024-01-10T00:06:57;-2.80;99.90
15426;DHT22;7812;50.072;7.036;2024-01-10T00:09:23;-2.80;99.90
15426;DHT22;7812;50.072;7.036;2024-01-10T00:11:48;-2.50;99.90
15426;DHT22;7812;50.072;7.036;2024-01-10T00:14:14;-2.80;99.90
15426;DHT22;7812;50.072;7.036;2024-01-10T00:16:40;-3.30;99.90
15426;DHT22;7812;50.072;7.036;2024-01-10T00:19:05;-3.10;99.90
15426;DHT22;7812;50.072;7.036;2024-01-10T00:21:31;-3.00;99.90
15426;DHT22;7812;50.072;7.036;2024-01-10T00:23:57;-2.70;99.90
15426;DHT22;7812;50.072;7.036;2024-01-10T00:26:23;-2.70;99.90
15426;DHT22;7812;50.072;7.036;2024-01-10T00:28:49;-2.90;99.90
15426;DHT22;7812;50.072;7.036;2024-01-10T00:31:14;-3.00;99.90
15426;DHT22;7812;50.072;7.036;2024-01-10T00:33:40;-2.80;99.90
15426;DHT22;7812;50.072;7.036;2024-01-10T00:36:06;-2.70;99.90
15426;DHT22;7812;50.072;7.036;2024-01-10T00:38:33;-2.60;99.90
15426;DHT22;7812;50.072;7.036;2024-01-10T00:40:58;-2.30;99.90
15426;DHT22;7812;50.072;7.036;2024-01-10T00:43:24;-2.60;99.90
15426;DHT22;7812;50.072;7.036;2024-01-10T00:45:50;-2.70;99.90
15426;DHT22;7812;50.072;7.036;2024-01-10T00:48:16;-3.10;99.90
15426;DHT22;7812;50.072;7.036;2024-01-10T00:50:43;-3.10;99.90
15426;DHT22;7812;50.072;7.036;2024-01-10T00:53:10;-3.00;99.90
15426;DHT22;7812;50.072;7.036;2024-01-10T00:55:35;-2.90;99.90
15426;DHT22;7812;50.072;7.036;2024-01-10T00:58:01;-3.00;99.90
15426;DHT22;7812;50.072;7.036;2024-01-10T01:00:27;-3.00;99.90
15426;DHT22;7812;50.072;7.036;2024-01-10T01:02:53;-3.30;99.90
15426;DHT22;7812;50.072;7.036;2024-01-10T01:05:18;-3.50;99.90
15426;DHT22;7812;50.072;7.036;2024-01-10T01:07:44;-3.40;99.90
15426;DHT22;7812;50.072;7.036;2024-01-10T01:10:10;-3.30;99.90
15426;DHT22;7812;50.072;7.036;2024-01-10T01:12:35;-3.30;99.90
15426;DHT22;7812;50.072;7.036;2024-01-10T01:15:01;-3.00;99.90
15426;DHT22;7812;50.072;7.036;2024-01-10T01:17:27;-3.00;99.90
15426;DHT22;7812;50.072;7.036;2024-01-10T01:19:52;-2.90;99.90
15426;DHT22;7812;50.072;7.036;2024-01-10T01:22:18;-2.90;99.90
15426;DHT22;7812;50.072;7.036;2024-01-10T01:24:44;-3.60;99.90
15426;DHT22;7812;50.072;7.036;2024-01-10T01:27:09;-4.50;99.90
15426;DHT22;7812;50.072;7.036;2024-01-10T01:29:35;-4.80;99.90
15426;DHT22;7812;50.072;7.036;2024-01-10T01:32:01;-4.80;99.90
15426;DHT22;7812;50.072;7.036;2024-01-10T01:34:27;-4.90;99.90
15426;DHT22;7812;50.072;7.036;2024-01-10T01:36:53;-4.50;99.90
15426;DHT22;7812;50.072;7.036;2024-01-10T01:39:19;-4.30;99.90
15426;DHT22;7812;50.072;7.036;2024-01-10T01:41:44;-3.90;99.90
15426;DHT22;7812;50.072;7.036;2024-01-10T01:44:10;-3.30;99.90
15426;DHT22;7812;50.072;7.036;2024-01-10T01:46:36;-3.00;99.90
15426;DHT22;7812;50.072;7.036;2024-01-10T01:49:03;-3.40;99.90
15426;DHT22;7812;50.072;7.036;2024-01-10T01:51:30;-3.30;99.90
15426;DHT22;7812;50.072;7.036;2024-01-10T01:53:57;-3.90;99.90
15426;DHT22;7812;50.072;7.036;2024-01-10T01:56:23;-4.20;99.90
15426;DHT22;7812;50.072;7.036;2024-01-10T01:58:51;-4.00;99.90
15426;DHT22;7812;50.072;7.036;2024-01-10T02:01:19;-3.70;99.90
15426;DHT22;7812;50.072;7.036;2024-01-10T02:03:47;-4.20;99.90
15426;DHT22;7812;50.072;7.036;2024-01-10T02:06:13;-4.90;99.90
15426;DHT22;7812;50.072;7.036;2024-01-10T02:08:39;-5.10;99.90
15426;DHT22;7812;50.072;7.036;2024-01-10T02:11:05;-4.70;99.90
15426;DHT22;7812;50.072;7.036;2024-01-10T02:13:34;-4.30;99.90
15426;DHT22;7812;50.072;7.036;2024-01-10T02:16:01;-4.60;99.90
15426;DHT22;7812;50.072;7.036;2024-01-10T02:18:26;-4.50;99.90
15426;DHT22;7812;50.072;7.036;2024-01-10T02:20:52;-4.00;99.90
15426;DHT22;7812;50.072;7.036;2024-01-10T02:23:18;-3.70;99.90
15426;DHT22;7812;50.072;7.036;2024-01-10T02:25:44;-3.90;99.90
15426;DHT22;7812;50.072;7.036;2024-01-10T02:38:16;-3.30;99.90
15426;DHT22;7812;50.072;7.036;2024-01-10T02:40:43;-3.70;99.90
15426;DHT22;7812;50.072;7.036;2024-01-10T02:43:08;-4.20;99.90
15426;DHT22;7812;50.072;7.036;2024-01-10T02:45:38;-3.70;99.90
15426;DHT22;7812;50.072;7.036;2024-01-10T02:48:04;-3.70;99.90
15426;DHT22;7812;50.072;7.036;2024-01-10T02:50:29;-4.10;99.90
15426;DHT22;7812;50.072;7.036;2024-01-10T02:52:55;-4.10;99.90
15426;DHT22;7812;50.072;7.036;2024-01-10T02:55:21;-3.70;99.90
15426;DHT22;7812;50.072;7.036;2024-01-10T02:57:47;-3.90;99.90
15426;DHT22;7812;50.072;7.036;2024-01-10T03:00:13;-4.40;99.90
15426;DHT22;7812;50.072;7.036;2024-01-10T03:02:38;-4.50;99.90
15426;DHT22;7812;50.072;7.036;2024-01-10T03:05:04;-4.40;99.90
15426;DHT22;7812;50.072;7.036;2024-01-10T03:07:30;-4.00;99.90
15426;DHT22;7812;50.072;7.036;2024-01-10T03:09:56;-4.00;99.90
15426;DHT22;7812;50.072;7.036;2024-01-10T03:12:21;-3.90;99.90
15426;DHT22;7812;50.072;7.036;2024-01-10T03:14:47;-3.90;99.90
15426;DHT22;7812;50.072;7.036;2024-01-10T03:17:12;-3.50;99.90
15426;DHT22;7812;50.072;7.036;2024-01-10T03:19:38;-3.30;99.90
15426;DHT22;7812;50.072;7.036;2024-01-10T03:22:08;-3.60;99.90
15426;DHT22;7812;50.072;7.036;2024-01-10T03:24:33;-3.40;99.90
15426;DHT22;7812;50.072;7.036;2024-01-10T03:26:59;-3.20;99.90
15426;DHT22;7812;50.072;7.036;2024-01-10T03:29:25;-3.20;99.90
15426;DHT22;7812;50.072;7.036;2024-01-10T03:31:51;-3.30;99.90
15426;DHT22;7812;50.072;7.036;2024-01-10T03:34:16;-3.20;99.90
15426;DHT22;7812;50.072;7.036;2024-01-10T03:36:43;-3.30;99.90
15426;DHT22;7812;50.072;7.036;2024-01-10T03:39:10;-3.20;99.90
15426;DHT22;7812;50.072;7.036;2024-01-10T03:41:36;-2.90;99.90
15426;DHT22;7812;50.072;7.036;2024-01-10T03:44:01;-3.00;99.90
15426;DHT22;7812;50.072;7.036;2024-01-10T03:46:27;-3.40;99.90
15426;DHT22;7812;50.072;7.036;2024-01-10T03:48:53;-3.50;99.90
15426;DHT22;7812;50.072;7.036;2024-01-10T03:51:19;-3.50;99.90
15426;DHT22;7812;50.072;7.036;2024-01-10T03:53:45;-4.00;99.90
15426;DHT22;7812;50.072;7.036;2024-01-10T03:56:14;-4.00;99.90
15426;DHT22;7812;50.072;7.036;2024-01-10T03:58:40;-4.10;99.90
15426;DHT22;7812;50.072;7.036;2024-01-10T04:01:06;-3.90;99.90
15426;DHT22;7812;50.072;7.036;2024-01-10T04:03:33;-3.90;99.90
15426;DHT22;7812;50.072;7.036;2024-01-10T04:05:59;-3.80;99.90
15426;DHT22;7812;50.072;7.036;2024-01-10T04:08:24;-3.50;99.90
15426;DHT22;7812;50.072;7.036;2024-01-10T04:10:50;-3.30;99.90
15426;DHT22;7812;50.072;7.036;2024-01-10T04:13:16;-3.40;99.90
15426;DHT22;7812;50.072;7.036;2024-01-10T04:15:41;-3.30;99.90
15426;DHT22;7812;50.072;7.036;2024-01-10T04:18:07;-2.80;99.90
15426;DHT22;7812;50.072;7.036;2024-01-10T04:20:33;-3.10;99.90
15426;DHT22;7812;50.072;7.036;2024-01-10T04:22:58;-3.60;99.90
15426;DHT22;7812;50.072;7.036;2024-01-10T04:25:24;-3.90;99.90
15426;DHT22;7812;50.072;7.036;2024-01-10T04:27:50;-3.70;99.90
15426;DHT22;7812;50.072;7.036;2024-01-10T04:30:16;-3.70;99.90
15426;DHT22;7812;50.072;7.036;2024-01-10T04:32:42;-3.50;99.90
15426;DHT22;7812;50.072;7.036;2024-01-10T04:35:07;-3.30;99.90
15426;DHT22;7812;50.072;7.036;2024-01-10T04:37:33;-3.50;99.90
15426;DHT22;7812;50.072;7.036;2024-01-10T04:39:59;-3.50;99.90
15426;DHT22;7812;50.072;7.036;2024-01-10T04:42:24;-3.30;99.90
15426;DHT22;7812;50.072;7.036;2024-01-10T04:44:50;-3.00;99.90
15426;DHT22;7812;50.072;7.036;2024-01-10T04:47:16;-2.80;99.90
15426;DHT22;7812;50.072;7.036;2024-01-10T04:49:42;-2.80;99.90
15426;DHT22;7812;50.072;7.036;2024-01-10T04:52:07;-2.90;99.90
15426;DHT22;7812;50.072;7.036;2024-01-10T04:54:33;-2.90;99.90
15426;DHT22;7812;50.072;7.036;2024-01-10T04:56:59;-2.90;99.90
15426;DHT22;7812;50.072;7.036;2024-01-10T04:59:25;-2.90;99.90
15426;DHT22;7812;50.072;7.036;2024-01-10T05:01:51;-2.90;99.90
15426;DHT22;7812;50.072;7.036;2024-01-10T05:04:16;-3.30;99.90
15426;DHT22;7812;50.072;7.036;2024-01-10T05:06:42;-3.40;99.90
15426;DHT22;7812;50.072;7.036;2024-01-10T05:09:08;-3.30;99.90
15426;DHT22;7812;50.072;7.036;2024-01-10T05:11:35;-3.00;99.90
15426;DHT22;7812;50.072;7.036;2024-01-10T05:14:04;-3.00;99.90
15426;DHT22;7812;50.072;7.036;2024-01-10T05:16:30;-3.20;99.90
15426;DHT22;7812;50.072;7.036;2024-01-10T05:18:56;-3.10;99.90
15426;DHT22;7812;50.072;7.036;2024-01-10T05:21:22;-4.00;99.90
15426;DHT22;7812;50.072;7.036;2024-01-10T05:23:48;-4.10;99.90
15426;DHT22;7812;50.072;7.036;2024-01-10T05:26:14;-3.70;99.90
15426;DHT22;7812;50.072;7.036;2024-01-10T05:28:40;-3.40;99.90
15426;DHT22;7812;50.072;7.036;2024-01-10T05:31:06;-3.30;99.90
15426;DHT22;7812;50.072;7.036;2024-01-10T05:33:32;-3.50;99.90
15426;DHT22;7812;50.072;7.036;2024-01-10T05:35:57;-3.10;99.90
15426;DHT22;7812;50.072;7.036;2024-01-10T05:38:23;-3.70;99.90
15426;DHT22;7812;50.072;7.036;2024-01-10T05:40:49;-4.20;99.90
15426;DHT22;7812;50.072;7.036;2024-01-10T05:43:15;-4.10;99.90
15426;DHT22;7812;50.072;7.036;2024-01-10T05:45:41;-3.80;99.90
15426;DHT22;7812;50.072;7.036;2024-01-10T05:48:06;-3.50;99.90
15426;DHT22;7812;50.072;7.036;2024-01-10T05:50:32;-3.70;99.90
15426;DHT22;7812;50.072;7.036;2024-01-10T05:56:07;-3.30;99.90
15426;DHT22;7812;50.072;7.036;2024-01-10T05:58:33;-3.20;99.90
15426;DHT22;7812;50.072;7.036;2024-01-10T06:00:59;-3.00;99.90
15426;DHT22;7812;50.072;7.036;2024-01-10T06:03:25;-3.10;99.90
15426;DHT22;7812;50.072;7.036;2024-01-10T06:05:50;-3.20;99.90
15426;DHT22;7812;50.072;7.036;2024-01-10T06:08:16;-3.00;99.90
15426;DHT22;7812;50.072;7.036;2024-01-10T06:10:42;-3.30;99.90
15426;DHT22;7812;50.072;7.036;2024-01-10T06:13:08;-3.90;99.90
15426;DHT22;7812;50.072;7.036;2024-01-10T06:15:33;-3.50;99.90
15426;DHT22;7812;50.072;7.036;2024-01-10T06:17:59;-4.10;99.90
15426;DHT22;7812;50.072;7.036;2024-01-10T06:20:25;-4.20;99.90
15426;DHT22;7812;50.072;7.036;2024-01-10T06:22:50;-3.80;99.90
15426;DHT22;7812;50.072;7.036;2024-01-10T06:25:16;-3.40;99.90
15426;DHT22;7812;50.072;7.036;2024-01-10T06:27:42;-3.30;99.90
15426;DHT22;7812;50.072;7.036;2024-01-10T06:30:08;-3.60;99.90
15426;DHT22;7812;50.072;7.036;2024-01-10T06:32:34;-3.90;99.90
15426;DHT22;7812;50.072;7.036;2024-01-10T06:35:00;-3.90;99.90
15426;DHT22;7812;50.072;7.036;2024-01-10T06:37:27;-3.50;99.90
15426;DHT22;7812;50.072;7.036;2024-01-10T06:39:53;-3.50;99.90
15426;DHT22;7812;50.072;7.036;2024-01-10T06:42:19;-3.30;99.90
15426;DHT22;7812;50.072;7.036;2024-01-10T06:44:44;-3.10;99.90
15426;DHT22;7812;50.072;7.036;2024-01-10T06:47:11;-3.20;99.90
15426;DHT22;7812;50.072;7.036;2024-01-10T06:49:37;-2.70;99.90
15426;DHT22;7812;50.072;7.036;2024-01-10T06:52:04;-2.80;99.90
15426;DHT22;7812;50.072;7.036;2024-01-10T06:54:32;-2.80;99.90
15426;DHT22;7812;50.072;7.036;2024-01-10T06:56:58;-2.60;99.90
15426;DHT22;7812;50.072;7.036;2024-01-10T06:59:23;-2.60;99.90
15426;DHT22;7812;50.072;7.036;2024-01-10T07:01:53;-3.20;99.90
15426;DHT22;7812;50.072;7.036;2024-01-10T07:04:18;-3.30;99.90
15426;DHT22;7812;50.072;7.036;2024-01-10T07:06:47;-3.30;99.90
15426;DHT22;7812;50.072;7.036;2024-01-10T07:09:13;-3.10;99.90
15426;DHT22;7812;50.072;7.036;2024-01-10T07:11:45;-2.70;99.90
15426;DHT22;7812;50.072;7.036;2024-01-10T07:14:13;-2.70;99.90
15426;DHT22;7812;50.072;7.036;2024-01-10T07:16:39;-2.30;99.90
15426;DHT22;7812;50.072;7.036;2024-01-10T07:19:11;-2.30;99.90
15426;DHT22;7812;50.072;7.036;2024-01-10T07:21:42;-2.90;99.90
15426;DHT22;7812;50.072;7.036;2024-01-10T07:24:08;-3.10;99.90
15426;DHT22;7812;50.072;7.036;2024-01-10T07:26:35;-2.60;99.90
15426;DHT22;7812;50.072;7.036;2024-01-10T07:29:04;-3.00;99.90
15426;DHT22;7812;50.072;7.036;2024-01-10T07:31:34;-3.50;99.90
15426;DHT22;7812;50.072;7.036;2024-01-10T07:34:00;-3.20;99.90
15426;DHT22;7812;50.072;7.036;2024-01-10T07:36:25;-3.00;99.90
15426;DHT22;7812;50.072;7.036;2024-01-10T07:38:56;-2.70;99.90
15426;DHT22;7812;50.072;7.036;2024-01-10T07:41:23;-2.70;99.90
15426;DHT22;7812;50.072;7.036;2024-01-10T07:44:13;-2.70;99.90
15426;DHT22;7812;50.072;7.036;2024-01-10T07:46:39;-3.00;99.90
15426;DHT22;7812;50.072;7.036;2024-01-10T07:49:05;-3.40;99.90
15426;DHT22;7812;50.072;7.036;2024-01-10T07:51:31;-4.20;99.90
15426;DHT22;7812;50.072;7.036;2024-01-10T07:53:58;-3.70;99.90
15426;DHT22;7812;50.072;7.036;2024-01-10T07:56:24;-3.00;99.90
15426;DHT22;7812;50.072;7.036;2024-01-10T07:58:50;-3.20;99.90
15426;DHT22;7812;50.072;7.036;2024-01-10T08:01:17;-3.00;99.90
15426;DHT22;7812;50.072;7.036;2024-01-10T08:03:43;-2.70;99.90
15426;DHT22;7812;50.072;7.036;2024-01-10T08:06:09;-2.50;99.90
15426;DHT22;7812;50.072;7.036;2024-01-10T08:08:37;-2.90;99.90
15426;DHT22;7812;50.072;7.036;2024-01-10T08:11:03;-3.30;99.90
15426;DHT22;7812;50.072;7.036;2024-01-10T08:13:28;-3.40;99.90
15426;DHT22;7812;50.072;7.036;2024-01-10T08:15:54;-3.20;99.90
15426;DHT22;7812;50.072;7.036;2024-01-10T08:18:20;-3.10;99.90
15426;DHT22;7812;50.072;7.036;2024-01-10T08:20:46;-2.80;99.90
15426;DHT22;7812;50.072;7.036;2024-01-10T08:23:11;-2.60;99.90
15426;DHT22;7812;50.072;7.036;2024-01-10T08:25:37;-3.40;99.90
15426;DHT22;7812;50.072;7.036;2024-01-10T08:28:03;-3.40;99.90
15426;DHT22;7812;50.072;7.036;2024-01-10T08:30:29;-3.30;99.90
15426;DHT22;7812;50.072;7.036;2024-01-10T08:32:55;-2.90;99.90
15426;DHT22;7812;50.072;7.036;2024-01-10T08:35:20;-2.70;99.90
15426;DHT22;7812;50.072;7.036;2024-01-10T08:37:46;-2.80;99.90
15426;DHT22;7812;50.072;7.036;2024-01-10T08:40:12;-2.90;99.90
15426;DHT22;7812;50.072;7.036;2024-01-10T08:42:41;-2.20;99.90
15426;DHT22;7812;50.072;7.036;2024-01-10T08:45:08;-1.80;99.90
15426;DHT22;7812;50.072;7.036;2024-01-10T08:47:35;-3.20;99.90
15426;DHT22;7812;50.072;7.036;2024-01-10T08:50:02;-3.60;99.90
15426;DHT22;7812;50.072;7.036;2024-01-10T08:52:31;-3.60;99.90
15426;DHT22;7812;50.072;7.036;2024-01-10T08:54:56;-2.90;99.90
15426;DHT22;7812;50.072;7.036;2024-01-10T08:57:22;-2.30;99.90
15426;DHT22;7812;50.072;7.036;2024-01-10T08:59:48;-1.60;99.90
15426;DHT22;7812;50.072;7.036;2024-01-10T09:02:14;-1.20;99.90
15426;DHT22;7812;50.072;7.036;2024-01-10T09:04:40;-1.90;99.90
15426;DHT22;7812;50.072;7.036;2024-01-10T09:07:07;-2.70;99.90
15426;DHT22;7812;50.072;7.036;2024-01-10T09:09:34;-2.00;99.90
15426;DHT22;7812;50.072;7.036;2024-01-10T09:12:00;-1.30;99.90
15426;DHT22;7812;50.072;7.036;2024-01-10T09:14:26;-2.50;99.90
15426;DHT22;7812;50.072;7.036;2024-01-10T09:16:52;-2.60;99.90
15426;DHT22;7812;50.072;7.036;2024-01-10T09:19:18;-2.20;99.90
15426;DHT22;7812;50.072;7.036;2024-01-10T09:21:44;-1.20;99.90
15426;DHT22;7812;50.072;7.036;2024-01-10T09:24:09;-1.30;99.90
15426;DHT22;7812;50.072;7.036;2024-01-10T09:26:36;-1.20;99.90
15426;DHT22;7812;50.072;7.036;2024-01-10T09:29:02;-0.90;99.90
15426;DHT22;7812;50.072;7.036;2024-01-10T09:31:28;-1.50;99.90
15426;DHT22;7812;50.072;7.036;2024-01-10T09:33:53;-1.60;99.90
15426;DHT22;7812;50.072;7.036;2024-01-10T09:36:19;-1.40;99.90
15426;DHT22;7812;50.072;7.036;2024-01-10T09:38:45;-0.80;99.90
15426;DHT22;7812;50.072;7.036;2024-01-10T09:41:11;-0.80;99.90
15426;DHT22;7812;50.072;7.036;2024-01-10T09:43:38;0.30;99.90
15426;DHT22;7812;50.072;7.036;2024-01-10T09:46:07;1.60;99.90
15426;DHT22;7812;50.072;7.036;2024-01-10T09:48:33;2.80;99.90
15426;DHT22;7812;50.072;7.036;2024-01-10T09:50:59;2.00;99.90
15426;DHT22;7812;50.072;7.036;2024-01-10T09:53:26;3.00;99.90
15426;DHT22;7812;50.072;7.036;2024-01-10T09:55:52;2.20;99.90
15426;DHT22;7812;50.072;7.036;2024-01-10T09:58:23;3.00;99.90
15426;DHT22;7812;50.072;7.036;2024-01-10T10:00:50;4.30;99.90
15426;DHT22;7812;50.072;7.036;2024-01-10T10:03:17;4.00;99.90
15426;DHT22;7812;50.072;7.036;2024-01-10T10:05:44;5.40;99.90
15426;DHT22;7812;50.072;7.036;2024-01-10T10:08:13;5.60;99.90
15426;DHT22;7812;50.072;7.036;2024-01-10T10:10:55;7.00;99.90
15426;DHT22;7812;50.072;7.036;2024-01-10T10:13:28;7.50;99.90
15426;DHT22;7812;50.072;7.036;2024-01-10T10:16:01;7.80;99.90
15426;DHT22;7812;50.072;7.036;2024-01-10T10:18:28;9.40;97.10
15426;DHT22;7812;50.072;7.036;2024-01-10T10:21:13;4.60;92.40
15426;DHT22;7812;50.072;7.036;2024-01-10T10:23:43;4.20;96.90
15426;DHT22;7812;50.072;7.036;2024-01-10T10:26:22;3.70;96.70
15426;DHT22;7812;50.072;7.036;2024-01-10T10:28:50;4.70;96.80
15426;DHT22;7812;50.072;7.036;2024-01-10T10:31:17;3.60;97.50
15426;DHT22;7812;50.072;7.036;2024-01-10T10:33:44;4.60;99.90
15426;DHT22;7812;50.072;7.036;2024-01-10T10:36:10;5.00;99.90
15426;DHT22;7812;50.072;7.036;2024-01-10T10:38:39;6.50;96.80
15426;DHT22;7812;50.072;7.036;2024-01-10T10:41:06;4.90;94.50
15426;DHT22;7812;50.072;7.036;2024-01-10T10:43:36;5.20;94.70
15426;DHT22;7812;50.072;7.036;2024-01-10T10:46:08;3.90;94.10
15426;DHT22;7812;50.072;7.036;2024-01-10T10:48:36;3.40;95.00
15426;DHT22;7812;50.072;7.036;2024-01-10T10:51:40;2.20;97.60
15426;DHT22;7812;50.072;7.036;2024-01-10T10:54:07;3.10;97.80
15426;DHT22;7812;50.072;7.036;2024-01-10T10:56:35;4.40;96.80
15426;DHT22;7812;50.072;7.036;2024-01-10T10:59:03;3.80;97.20
15426;DHT22;7812;50.072;7.036;2024-01-10T11:01:29;4.10;97.40
15426;DHT22;7812;50.072;7.036;2024-01-10T11:03:57;3.70;95.90
15426;DHT22;7812;50.072;7.036;2024-01-10T11:06:24;4.50;97.80
15426;DHT22;7812;50.072;7.036;2024-01-10T11:08:59;4.70;95.00
15426;DHT22;7812;50.072;7.036;2024-01-10T11:25:42;2.60;96.40
15426;DHT22;7812;50.072;7.036;2024-01-10T11:28:08;3.10;97.70
15426;DHT22;7812;50.072;7.036;2024-01-10T11:30:38;3.40;97.80
15426;DHT22;7812;50.072;7.036;2024-01-10T11:36:14;6.80;97.80
15426;DHT22;7812;50.072;7.036;2024-01-10T11:41:35;4.70;95.00
15426;DHT22;7812;50.072;7.036;2024-01-10T11:46:50;6.00;96.50
15426;DHT22;7812;50.072;7.036;2024-01-10T11:49:20;7.50;97.00
15426;DHT22;7812;50.072;7.036;2024-01-10T11:51:51;8.10;96.20
15426;DHT22;7812;50.072;7.036;2024-01-10T11:54:39;9.20;95.50
15426;DHT22;7812;50.072;7.036;2024-01-10T11:57:23;6.60;91.70
15426;DHT22;7812;50.072;7.036;2024-01-10T11:59:54;6.60;96.60
15426;DHT22;7812;50.072;7.036;2024-01-10T12:02:21;6.40;93.60
15426;DHT22;7812;50.072;7.036;2024-01-10T12:04:48;7.70;94.50
15426;DHT22;7812;50.072;7.036;2024-01-10T12:07:14;8.30;94.70
15426;DHT22;7812;50.072;7.036;2024-01-10T12:09:40;8.10;90.30
15426;DHT22;7812;50.072;7.036;2024-01-10T12:12:07;6.70;92.40
15426;DHT22;7812;50.072;7.036;2024-01-10T12:14:34;7.00;93.50
15426;DHT22;7812;50.072;7.036;2024-01-10T12:17:00;8.40;92.20
15426;DHT22;7812;50.072;7.036;2024-01-10T12:19:27;7.30;91.40
15426;DHT22;7812;50.072;7.036;2024-01-10T12:21:52;7.30;93.70
15426;DHT22;7812;50.072;7.036;2024-01-10T12:24:19;7.30;96.50
15426;DHT22;7812;50.072;7.036;2024-01-10T12:26:46;7.50;95.50
15426;DHT22;7812;50.072;7.036;2024-01-10T12:29:17;8.50;95.70
15426;DHT22;7812;50.072;7.036;2024-01-10T12:31:43;10.40;96.20
15426;DHT22;7812;50.072;7.036;2024-01-10T12:34:11;11.60;93.80
15426;DHT22;7812;50.072;7.036;2024-01-10T12:36:37;12.20;89.10
15426;DHT22;7812;50.072;7.036;2024-01-10T12:39:03;11.80;89.90
15426;DHT22;7812;50.072;7.036;2024-01-10T12:41:32;11.20;93.20
15426;DHT22;7812;50.072;7.036;2024-01-10T12:43:59;11.70;92.50
15426;DHT22;7812;50.072;7.036;2024-01-10T12:46:29;12.20;87.00
15426;DHT22;7812;50.072;7.036;2024-01-10T12:49:02;11.20;80.50
15426;DHT22;7812;50.072;7.036;2024-01-10T12:51:29;11.00;82.60
15426;DHT22;7812;50.072;7.036;2024-01-10T12:53:56;10.90;82.70
15426;DHT22;7812;50.072;7.036;2024-01-10T12:56:24;11.30;91.70
15426;DHT22;7812;50.072;7.036;2024-01-10T12:58:50;11.70;91.20
15426;DHT22;7812;50.072;7.036;2024-01-10T13:01:16;12.10;90.30
15426;DHT22;7812;50.072;7.036;2024-01-10T13:03:42;12.40;88.40
15426;DHT22;7812;50.072;7.036;2024-01-10T13:06:09;11.90;79.50
15426;DHT22;7812;50.072;7.036;2024-01-10T13:08:35;11.60;88.20
15426;DHT22;7812;50.072;7.036;2024-01-10T13:11:01;11.10;82.90
15426;DHT22;7812;50.072;7.036;2024-01-10T13:13:29;10.50;82.80
15426;DHT22;7812;50.072;7.036;2024-01-10T13:15:55;10.50;84.80
15426;DHT22;7812;50.072;7.036;2024-01-10T13:18:21;9.30;83.10
15426;DHT22;7812;50.072;7.036;2024-01-10T13:20:47;7.40;87.50
15426;DHT22;7812;50.072;7.036;2024-01-10T13:23:14;5.70;90.20
15426;DHT22;7812;50.072;7.036;2024-01-10T13:25:41;5.10;95.90
15426;DHT22;7812;50.072;7.036;2024-01-10T13:28:06;4.30;92.20
15426;DHT22;7812;50.072;7.036;2024-01-10T13:30:32;3.80;94.90
15426;DHT22;7812;50.072;7.036;2024-01-10T13:32:58;3.30;94.70
15426;DHT22;7812;50.072;7.036;2024-01-10T13:35:26;2.50;95.00
15426;DHT22;7812;50.072;7.036;2024-01-10T13:37:52;2.60;99.90
15426;DHT22;7812;50.072;7.036;2024-01-10T13:40:18;2.90;99.90
15426;DHT22;7812;50.072;7.036;2024-01-10T13:42:49;2.30;99.90
15426;DHT22;7812;50.072;7.036;2024-01-10T13:45:15;2.70;99.90
15426;DHT22;7812;50.072;7.036;2024-01-10T13:47:42;2.80;99.90
15426;DHT22;7812;50.072;7.036;2024-01-10T13:50:08;2.50;99.60
15426;DHT22;7812;50.072;7.036;2024-01-10T13:52:35;1.90;99.90
15426;DHT22;7812;50.072;7.036;2024-01-10T13:55:02;1.50;99.90
15426;DHT22;7812;50.072;7.036;2024-01-10T13:57:30;1.50;99.90
15426;DHT22;7812;50.072;7.036;2024-01-10T13:59:58;1.40;99.90
15426;DHT22;7812;50.072;7.036;2024-01-10T14:02:24;1.20;99.90
15426;DHT22;7812;50.072;7.036;2024-01-10T14:04:50;1.30;99.90
15426;DHT22;7812;50.072;7.036;2024-01-10T14:07:16;1.20;99.90
15426;DHT22;7812;50.072;7.036;2024-01-10T14:09:42;1.10;99.90
15426;DHT22;7812;50.072;7.036;2024-01-10T14:12:07;1.10;99.90
15426;DHT22;7812;50.072;7.036;2024-01-10T14:14:33;0.90;99.90
15426;DHT22;7812;50.072;7.036;2024-01-10T14:16:59;1.10;99.90
15426;DHT22;7812;50.072;7.036;2024-01-10T14:19:24;1.20;99.90
15426;DHT22;7812;50.072;7.036;2024-01-10T14:21:51;1.00;99.90
15426;DHT22;7812;50.072;7.036;2024-01-10T14:24:17;1.10;99.90
15426;DHT22;7812;50.072;7.036;2024-01-10T14:26:43;1.30;99.90
15426;DHT22;7812;50.072;7.036;2024-01-10T14:29:09;1.10;99.90
15426;DHT22;7812;50.072;7.036;2024-01-10T14:31:35;1.10;99.90
15426;DHT22;7812;50.072;7.036;2024-01-10T14:34:00;1.20;99.90
15426;DHT22;7812;50.072;7.036;2024-01-10T14:36:26;1.20;99.90
15426;DHT22;7812;50.072;7.036;2024-01-10T14:38:52;1.20;99.90
15426;DHT22;7812;50.072;7.036;2024-01-10T14:41:18;1.00;99.90
15426;DHT22;7812;50.072;7.036;2024-01-10T14:43:43;1.30;99.90
15426;DHT22;7812;50.072;7.036;2024-01-10T14:46:09;1.10;99.90
15426;DHT22;7812;50.072;7.036;2024-01-10T14:48:38;1.50;99.90
15426;DHT22;7812;50.072;7.036;2024-01-10T14:51:04;1.60;99.90
15426;DHT22;7812;50.072;7.036;2024-01-10T14:53:30;1.40;99.90
15426;DHT22;7812;50.072;7.036;2024-01-10T15:09:43;1.10;99.90
15426;DHT22;7812;50.072;7.036;2024-01-10T15:12:09;0.80;99.90
15426;DHT22;7812;50.072;7.036;2024-01-10T15:14:36;0.70;99.90
15426;DHT22;7812;50.072;7.036;2024-01-10T15:17:04;0.80;99.90
15426;DHT22;7812;50.072;7.036;2024-01-10T15:19:34;0.70;99.90
15426;DHT22;7812;50.072;7.036;2024-01-10T15:22:01;0.60;99.90
15426;DHT22;7812;50.072;7.036;2024-01-10T15:24:28;0.70;99.90
15426;DHT22;7812;50.072;7.036;2024-01-10T15:26:53;0.80;99.90
15426;DHT22;7812;50.072;7.036;2024-01-10T15:29:19;0.70;99.90
15426;DHT22;7812;50.072;7.036;2024-01-10T15:31:45;0.70;99.90
15426;DHT22;7812;50.072;7.036;2024-01-10T15:34:11;0.60;99.90
15426;DHT22;7812;50.072;7.036;2024-01-10T15:36:41;0.50;99.90
15426;DHT22;7812;50.072;7.036;2024-01-10T15:39:07;0.50;99.90
15426;DHT22;7812;50.072;7.036;2024-01-10T15:41:33;0.90;99.90
15426;DHT22;7812;50.072;7.036;2024-01-10T15:43:59;0.00;99.90
15426;DHT22;7812;50.072;7.036;2024-01-10T15:46:24;0.00;99.90
15426;DHT22;7812;50.072;7.036;2024-01-10T15:48:50;0.10;99.90
15426;DHT22;7812;50.072;7.036;2024-01-10T15:51:16;0.20;99.90
15426;DHT22;7812;50.072;7.036;2024-01-10T15:53:42;0.40;99.90
15426;DHT22;7812;50.072;7.036;2024-01-10T15:56:11;0.80;99.90
15426;DHT22;7812;50.072;7.036;2024-01-10T15:58:37;0.70;99.90
15426;DHT22;7812;50.072;7.036;2024-01-10T16:01:05;0.90;99.90
15426;DHT22;7812;50.072;7.036;2024-01-10T16:03:32;0.90;99.90
15426;DHT22;7812;50.072;7.036;2024-01-10T16:05:58;0.40;99.90
15426;DHT22;7812;50.072;7.036;2024-01-10T16:08:24;0.40;99.90
15426;DHT22;7812;50.072;7.036;2024-01-10T16:10:50;0.30;99.90
15426;DHT22;7812;50.072;7.036;2024-01-10T16:13:16;0.40;99.90
15426;DHT22;7812;50.072;7.036;2024-01-10T16:15:43;0.30;99.90
15426;DHT22;7812;50.072;7.036;2024-01-10T16:18:09;-0.40;99.90
15426;DHT22;7812;50.072;7.036;2024-01-10T16:20:35;0.10;99.90
15426;DHT22;7812;50.072;7.036;2024-01-10T16:23:03;0.40;99.90
15426;DHT22;7812;50.072;7.036;2024-01-10T16:25:29;0.40;99.90
15426;DHT22;7812;50.072;7.036;2024-01-10T16:27:55;0.00;99.90
15426;DHT22;7812;50.072;7.036;2024-01-10T16:30:21;0.10;99.90
15426;DHT22;7812;50.072;7.036;2024-01-10T16:32:47;0.20;99.90
15426;DHT22;7812;50.072;7.036;2024-01-10T16:35:13;0.60;99.90
15426;DHT22;7812;50.072;7.036;2024-01-10T16:37:40;0.40;99.90
15426;DHT22;7812;50.072;7.036;2024-01-10T16:40:06;0.40;99.90